createdAt,value
2018-03-30T00:01:43.032Z,0.30
2018-03-30T00:04:13.132Z,0.20
2018-03-30T00:06:43.247Z,0.00
2018-03-30T00:09:29.943Z,0.00
2018-03-30T00:12:00.091Z,0.10
2018-03-30T00:14:30.255Z,0.00
2018-03-30T00:17:02.796Z,0.10
2018-03-30T00:19:32.914Z,0.20
2018-03-30T00:22:06.794Z,0.30
2018-03-30T00:24:37.000Z,0.40
2018-03-30T00:27:06.751Z,0.40
2018-03-30T00:29:37.383Z,0.40
2018-03-30T00:32:07.583Z,0.50
2018-03-30T00:34:38.211Z,0.50
2018-03-30T00:37:09.223Z,0.60
2018-03-30T00:39:39.165Z,0.60
2018-03-30T00:42:09.432Z,0.50
2018-03-30T00:44:40.519Z,0.50
2018-03-30T00:47:10.708Z,0.40
2018-03-30T00:49:40.851Z,0.50
2018-03-30T00:52:11.425Z,0.40
2018-03-30T00:54:41.576Z,0.40
2018-03-30T00:57:12.482Z,0.40
2018-03-30T00:59:42.614Z,0.40
2018-03-30T01:02:12.743Z,0.30
2018-03-30T01:04:42.835Z,0.40
2018-03-30T01:07:13.833Z,0.30
2018-03-30T01:09:43.935Z,0.30
2018-03-30T01:12:14.269Z,0.20
2018-03-30T01:14:44.358Z,0.20
2018-03-30T01:17:15.225Z,0.20
2018-03-30T01:19:45.561Z,0.10
2018-03-30T01:22:16.476Z,-0.10
2018-03-30T01:24:46.866Z,-0.10
2018-03-30T01:27:17.004Z,-0.20
2018-03-30T01:29:50.305Z,-0.30
2018-03-30T01:32:21.005Z,-0.30
2018-03-30T01:34:51.187Z,-0.30
2018-03-30T01:37:21.776Z,-0.20
2018-03-30T01:39:53.337Z,-0.10
2018-03-30T01:42:24.033Z,-0.10
2018-03-30T01:44:54.151Z,-0.10
2018-03-30T01:47:24.288Z,-0.10
2018-03-30T01:49:54.397Z,-0.10
2018-03-30T01:52:24.477Z,-0.10
2018-03-30T01:54:54.593Z,0.00
2018-03-30T01:57:24.804Z,-0.10
2018-03-30T01:59:55.862Z,-0.10
2018-03-30T02:02:26.348Z,-0.10
2018-03-30T02:04:58.826Z,0.00
2018-03-30T02:07:29.270Z,0.00
2018-03-30T02:09:59.597Z,0.00
2018-03-30T02:12:31.531Z,0.00
2018-03-30T02:15:01.627Z,0.10
2018-03-30T02:17:31.739Z,0.10
2018-03-30T02:20:01.825Z,0.10
2018-03-30T02:22:31.579Z,0.00
2018-03-30T02:25:01.903Z,-0.20
2018-03-30T02:27:32.468Z,-0.20
2018-03-30T02:30:04.376Z,-0.30
2018-03-30T02:32:36.126Z,-0.40
2018-03-30T02:35:07.454Z,-0.30
2018-03-30T02:37:38.054Z,-0.30
2018-03-30T02:40:12.073Z,-0.10
2018-03-30T02:42:43.078Z,-0.10
2018-03-30T02:47:54.034Z,-0.10
2018-03-30T02:50:24.404Z,-0.10
2018-03-30T02:52:54.833Z,0.00
2018-03-30T02:55:31.992Z,0.00
2018-03-30T02:58:02.118Z,-0.10
2018-03-30T03:00:32.252Z,0.00
2018-03-30T03:03:05.859Z,0.10
2018-03-30T03:05:36.065Z,0.20
2018-03-30T03:08:06.169Z,0.40
2018-03-30T03:10:36.490Z,0.60
2018-03-30T03:13:06.610Z,0.60
2018-03-30T03:15:36.680Z,0.70
2018-03-30T03:18:06.149Z,0.60
2018-03-30T03:20:36.279Z,0.60
2018-03-30T03:23:07.414Z,0.40
2018-03-30T03:25:37.678Z,0.40
2018-03-30T03:28:08.578Z,0.40
2018-03-30T03:30:39.746Z,0.50
2018-03-30T03:33:10.083Z,0.50
2018-03-30T03:35:40.954Z,0.40
2018-03-30T03:38:11.037Z,0.40
2018-03-30T03:40:41.126Z,0.40
2018-03-30T03:48:25.538Z,0.40
2018-03-30T03:50:55.640Z,0.50
2018-03-30T03:53:28.353Z,0.50
2018-03-30T03:55:59.384Z,0.50
2018-03-30T03:58:29.472Z,0.50
2018-03-30T04:00:59.552Z,0.50
2018-03-30T04:03:29.935Z,0.50
2018-03-30T04:06:00.762Z,0.60
2018-03-30T04:08:31.683Z,0.60
2018-03-30T04:11:03.468Z,0.70
2018-03-30T04:13:33.783Z,0.60
2018-03-30T04:16:03.872Z,0.70
2018-03-30T04:18:34.222Z,0.60
2018-03-30T04:21:04.346Z,0.70
2018-03-30T04:23:37.556Z,0.60
2018-03-30T04:26:07.951Z,0.60
2018-03-30T04:28:38.274Z,0.60
2018-03-30T04:31:10.766Z,0.60
2018-03-30T04:33:41.600Z,0.60
2018-03-30T04:36:11.716Z,0.50
2018-03-30T04:38:47.811Z,0.50
2018-03-30T04:41:17.947Z,0.60
2018-03-30T04:46:24.659Z,0.50
2018-03-30T04:48:55.660Z,0.50
2018-03-30T04:51:27.644Z,0.50
2018-03-30T04:53:57.841Z,0.50
2018-03-30T04:56:28.507Z,0.40
2018-03-30T04:58:58.393Z,0.40
2018-03-30T05:01:28.212Z,0.50
2018-03-30T05:03:58.791Z,0.50
2018-03-30T05:06:30.295Z,0.70
2018-03-30T05:09:00.391Z,0.60
2018-03-30T05:11:30.460Z,0.70
2018-03-30T05:14:00.567Z,0.70
2018-03-30T05:19:06.130Z,0.80
2018-03-30T05:21:37.498Z,0.70
2018-03-30T05:24:08.190Z,0.60
2018-03-30T05:26:41.640Z,0.60
2018-03-30T05:29:12.867Z,0.50
2018-03-30T05:31:48.212Z,0.50
2018-03-30T05:34:18.510Z,0.50
2018-03-30T05:36:48.800Z,0.60
2018-03-30T05:39:19.170Z,0.60
2018-03-30T05:41:52.721Z,0.60
2018-03-30T05:44:23.205Z,0.70
2018-03-30T05:46:53.292Z,0.70
2018-03-30T05:49:23.431Z,0.70
2018-03-30T05:51:54.874Z,0.70
2018-03-30T05:54:24.999Z,0.70
2018-03-30T05:56:59.274Z,0.70
2018-03-30T05:59:29.791Z,0.80
2018-03-30T06:01:59.868Z,0.90
2018-03-30T06:04:29.958Z,0.90
2018-03-30T06:07:10.580Z,1.20
2018-03-30T06:09:40.978Z,1.10
2018-03-30T06:12:11.117Z,1.30
2018-03-30T06:14:40.956Z,1.50
2018-03-30T06:17:11.842Z,1.70
2018-03-30T06:19:43.699Z,2.10
2018-03-30T06:22:25.996Z,2.10
2018-03-30T06:24:59.380Z,2.40
2018-03-30T06:27:32.616Z,2.80
2018-03-30T06:30:03.484Z,3.10
2018-03-30T06:32:33.594Z,3.10
2018-03-30T06:35:03.642Z,3.50
2018-03-30T06:37:34.448Z,3.90
2018-03-30T06:40:04.307Z,4.10
2018-03-30T06:42:34.404Z,4.30
2018-03-30T06:45:04.452Z,4.50
2018-03-30T06:47:34.840Z,4.40
2018-03-30T06:50:04.089Z,4.70
2018-03-30T06:52:35.666Z,4.90
2018-03-30T06:55:05.774Z,5.20
2018-03-30T06:57:36.157Z,5.30
2018-03-30T07:00:05.612Z,5.80
2018-03-30T07:02:36.457Z,6.50
2018-03-30T07:05:06.342Z,6.50
2018-03-30T07:07:37.173Z,7.10
2018-03-30T07:10:08.090Z,7.20
2018-03-30T07:12:38.374Z,7.20
2018-03-30T07:15:08.671Z,7.10
2018-03-30T07:17:39.050Z,7.30
2018-03-30T07:20:08.800Z,7.30
2018-03-30T07:22:38.881Z,7.40
2018-03-30T07:25:09.308Z,7.10
2018-03-30T07:27:39.385Z,6.80
2018-03-30T07:30:10.485Z,6.80
2018-03-30T07:32:40.588Z,6.70
2018-03-30T07:35:10.690Z,6.90
2018-03-30T07:37:40.885Z,7.30
2018-03-30T07:40:11.770Z,7.70
2018-03-30T07:42:41.849Z,7.70
2018-03-30T07:45:12.186Z,7.70
2018-03-30T07:47:42.262Z,8.10
2018-03-30T07:50:12.548Z,8.40
2018-03-30T07:52:43.407Z,8.30
2018-03-30T07:55:14.271Z,8.30
2018-03-30T07:57:44.824Z,8.30
2018-03-30T08:00:14.905Z,8.30
2018-03-30T08:02:45.029Z,8.70
2018-03-30T08:05:15.167Z,9.20
2018-03-30T08:07:45.254Z,9.50
2018-03-30T08:10:15.344Z,10.10
2018-03-30T08:12:45.279Z,10.30
2018-03-30T08:15:15.385Z,10.30
2018-03-30T08:17:45.665Z,10.10
2018-03-30T08:20:16.538Z,10.30
2018-03-30T08:22:47.400Z,10.00
2018-03-30T08:25:17.640Z,10.00
2018-03-30T08:27:48.518Z,9.60
2018-03-30T08:30:18.832Z,9.60
2018-03-30T08:32:48.932Z,9.70
2018-03-30T08:35:19.014Z,9.60
2018-03-30T08:37:49.429Z,9.50
2018-03-30T08:40:19.525Z,9.70
2018-03-30T08:42:49.716Z,9.80
2018-03-30T08:45:19.807Z,10.00
2018-03-30T08:47:50.082Z,10.40
2018-03-30T08:50:20.905Z,10.60
2018-03-30T08:52:51.046Z,10.60
2018-03-30T08:55:21.244Z,10.70
2018-03-30T08:57:51.510Z,10.50
2018-03-30T09:00:21.738Z,10.30
2018-03-30T09:02:53.700Z,10.40
2018-03-30T09:05:23.788Z,10.40
2018-03-30T09:07:56.754Z,10.30
2018-03-30T09:10:27.073Z,10.30
2018-03-30T09:12:57.930Z,10.10
2018-03-30T09:15:27.939Z,10.50
2018-03-30T09:18:00.739Z,11.00
2018-03-30T09:20:31.033Z,11.40
2018-03-30T09:23:01.759Z,11.30
2018-03-30T09:25:32.022Z,11.10
2018-03-30T09:28:02.422Z,11.00
2018-03-30T09:30:32.196Z,11.30
2018-03-30T09:33:02.069Z,11.80
2018-03-30T09:35:32.319Z,12.20
2018-03-30T09:38:02.785Z,12.30
2018-03-30T09:40:33.891Z,12.30
2018-03-30T09:43:04.029Z,12.20
2018-03-30T09:45:34.309Z,12.00
2018-03-30T09:48:04.446Z,11.60
2018-03-30T09:50:34.639Z,11.60
2018-03-30T09:53:05.083Z,11.60
2018-03-30T09:55:35.191Z,12.00
2018-03-30T09:58:06.585Z,12.70
2018-03-30T10:00:37.565Z,13.00
2018-03-30T10:03:07.703Z,13.00
2018-03-30T10:05:38.033Z,13.20
2018-03-30T10:08:08.113Z,13.20
2018-03-30T10:10:38.997Z,13.00
2018-03-30T10:13:09.928Z,12.90
2018-03-30T10:15:39.807Z,12.90
2018-03-30T10:18:09.912Z,13.00
2018-03-30T10:20:40.189Z,13.70
2018-03-30T10:23:10.366Z,14.40
2018-03-30T10:25:40.504Z,14.80
2018-03-30T10:28:10.890Z,15.10
2018-03-30T10:30:41.005Z,15.20
2018-03-30T10:33:11.175Z,15.00
2018-03-30T10:35:41.617Z,15.00
2018-03-30T10:38:11.879Z,14.60
2018-03-30T10:40:43.130Z,14.30
2018-03-30T10:43:13.327Z,14.60
2018-03-30T10:45:44.091Z,15.00
2018-03-30T10:48:14.660Z,15.40
2018-03-30T10:50:45.331Z,16.00
2018-03-30T10:53:16.318Z,16.40
2018-03-30T10:55:47.315Z,16.00
2018-03-30T10:58:17.426Z,15.10
2018-03-30T11:00:49.914Z,14.00
2018-03-30T11:03:21.991Z,12.50
2018-03-30T11:05:52.121Z,12.50
2018-03-30T11:08:23.050Z,12.60
2018-03-30T11:10:53.187Z,12.60
2018-03-30T11:13:23.456Z,12.80
2018-03-30T11:15:53.776Z,13.00
2018-03-30T11:18:23.893Z,13.20
2018-03-30T11:20:54.061Z,13.10
2018-03-30T11:23:24.114Z,12.90
2018-03-30T11:25:54.242Z,12.70
2018-03-30T11:28:24.317Z,12.50
2018-03-30T11:30:56.903Z,12.40
2018-03-30T11:33:27.070Z,12.30
2018-03-30T11:35:57.425Z,12.00
2018-03-30T11:38:27.364Z,12.00
2018-03-30T11:40:57.728Z,11.70
2018-03-30T11:43:28.213Z,11.40
2018-03-30T11:45:58.602Z,11.40
2018-03-30T11:48:28.843Z,11.50
2018-03-30T11:50:59.338Z,11.60
2018-03-30T11:53:29.564Z,11.70
2018-03-30T11:56:00.151Z,11.80
2018-03-30T11:58:31.255Z,11.90
2018-03-30T12:01:01.404Z,11.90
2018-03-30T12:03:31.500Z,11.80
2018-03-30T12:06:01.652Z,11.70
2018-03-30T12:08:31.766Z,11.70
2018-03-30T12:11:01.918Z,11.80
2018-03-30T12:13:35.104Z,11.90
2018-03-30T12:16:05.431Z,12.10
2018-03-30T12:18:35.830Z,12.20
2018-03-30T12:21:06.132Z,12.10
2018-03-30T12:23:37.059Z,11.90
2018-03-30T12:26:09.520Z,11.90
2018-03-30T12:28:41.027Z,11.70
2018-03-30T12:31:11.106Z,11.70
2018-03-30T12:33:41.283Z,11.80
2018-03-30T12:36:11.448Z,12.20
2018-03-30T12:38:41.557Z,12.60
2018-03-30T12:41:12.136Z,13.20
2018-03-30T12:43:42.468Z,13.70
2018-03-30T12:46:13.369Z,14.80
2018-03-30T12:48:44.201Z,14.80
2018-03-30T12:51:15.053Z,15.40
2018-03-30T12:53:45.157Z,15.40
2018-03-30T12:56:16.604Z,16.10
2018-03-30T12:58:47.665Z,16.00
2018-03-30T13:01:18.297Z,16.20
2018-03-30T13:03:49.048Z,16.70
2018-03-30T13:06:19.852Z,17.10
2018-03-30T13:08:50.508Z,16.60
2018-03-30T13:11:20.884Z,15.90
2018-03-30T13:13:50.953Z,15.30
2018-03-30T13:16:21.062Z,15.10
2018-03-30T13:18:51.158Z,15.20
2018-03-30T13:21:22.034Z,14.90
2018-03-30T13:23:52.991Z,14.90
2018-03-30T13:26:23.123Z,14.90
2018-03-30T13:28:52.908Z,14.80
2018-03-30T13:31:23.140Z,14.60
2018-03-30T13:33:54.372Z,14.40
2018-03-30T13:36:24.509Z,14.30
2018-03-30T13:38:54.676Z,13.90
2018-03-30T13:41:24.835Z,13.60
2018-03-30T13:43:56.551Z,13.70
2018-03-30T13:46:26.611Z,13.70
2018-03-30T13:48:56.707Z,13.80
2018-03-30T13:51:34.768Z,13.70
2018-03-30T13:54:07.346Z,13.50
2018-03-30T13:56:37.408Z,13.20
2018-03-30T14:02:49.007Z,12.80
2018-03-30T14:24:13.403Z,12.00
2018-03-30T14:27:02.220Z,12.00
2018-03-30T14:32:49.757Z,12.10
2018-03-30T14:38:44.771Z,12.10
2018-03-30T14:41:13.977Z,12.00
2018-03-30T14:47:09.827Z,12.00
2018-03-30T14:50:13.278Z,12.10
2018-03-30T14:56:10.093Z,11.70
2018-03-30T15:17:22.196Z,11.80
2018-03-30T15:23:27.760Z,11.80
2018-03-30T15:25:58.301Z,11.90
2018-03-30T15:28:38.050Z,11.90
2018-03-30T15:31:27.271Z,11.90
2018-03-30T16:04:54.893Z,10.80
2018-03-30T16:13:21.985Z,10.20
2018-03-30T16:15:58.585Z,9.80
2018-03-30T16:18:50.128Z,9.50
2018-03-30T16:21:37.335Z,9.20
2018-03-30T16:29:46.522Z,7.70
2018-03-30T16:32:34.824Z,7.40
2018-03-30T16:35:04.036Z,7.10
2018-03-30T16:37:33.702Z,6.80
2018-03-30T16:49:30.264Z,6.20
2018-03-30T16:55:08.866Z,5.90
2018-03-30T16:57:37.273Z,5.80
2018-03-30T17:09:37.731Z,5.60
2018-03-30T17:12:06.365Z,5.60
2018-03-30T17:30:10.077Z,5.30
2018-03-30T17:36:18.157Z,5.20
2018-03-30T17:38:55.625Z,5.20
2018-03-30T17:44:11.582Z,5.20
2018-03-30T17:49:43.628Z,5.10
2018-03-30T17:52:18.980Z,5.10
2018-03-30T17:54:47.457Z,5.00
2018-03-30T17:57:36.148Z,5.00
2018-03-30T18:00:23.989Z,5.00
2018-03-30T18:02:53.176Z,5.00
2018-03-30T18:05:27.868Z,5.00
2018-03-30T18:07:57.160Z,5.00
2018-03-30T18:13:39.345Z,4.90
2018-03-30T18:25:27.615Z,4.80
2018-03-30T18:27:56.412Z,4.80
2018-03-30T18:33:23.951Z,4.80
2018-03-30T18:38:48.296Z,4.70
2018-03-30T18:44:20.686Z,4.70
2018-03-30T18:49:54.656Z,4.70
2018-03-30T18:52:25.035Z,4.70
2018-03-30T18:54:54.285Z,4.70
2018-03-30T18:57:24.817Z,4.60
2018-03-30T19:03:14.003Z,4.60
2018-03-30T19:05:43.225Z,4.60
2018-03-30T19:08:23.958Z,4.50
2018-03-30T19:10:53.127Z,4.50
2018-03-30T19:13:23.178Z,4.50
2018-03-30T19:15:54.587Z,4.50
2018-03-30T19:34:55.463Z,4.30
2018-03-30T19:46:33.081Z,4.30
2018-03-30T19:49:01.683Z,4.30
2018-03-30T19:51:30.327Z,4.30
2018-03-30T20:05:46.947Z,4.30
2018-03-30T20:08:15.803Z,4.30
2018-03-30T20:10:44.151Z,4.20
2018-03-30T20:13:25.590Z,4.20
2018-03-30T20:28:27.528Z,4.10
2018-03-30T20:30:56.000Z,4.00
2018-03-30T20:36:47.285Z,3.90
2018-03-30T20:39:15.969Z,3.90
2018-03-30T20:41:52.234Z,3.90
2018-03-30T20:44:40.933Z,3.80
2018-03-30T20:53:29.602Z,3.70
2018-03-30T20:55:57.999Z,3.70
2018-03-30T21:01:37.331Z,3.60
2018-03-30T21:07:16.012Z,3.60
2018-03-30T21:22:02.555Z,3.40
2018-03-30T21:24:31.541Z,3.30
2018-03-30T21:27:00.355Z,3.30
2018-03-30T21:35:42.606Z,3.30
2018-03-30T21:38:11.998Z,3.30
2018-03-30T21:41:08.946Z,3.20
2018-03-30T21:49:29.390Z,3.10
2018-03-30T21:51:58.737Z,3.10
2018-03-30T22:00:48.003Z,3.20
2018-03-30T22:03:17.585Z,3.20
2018-03-30T22:05:46.103Z,3.30
2018-03-30T22:08:15.601Z,3.30
2018-03-30T22:11:10.636Z,3.30
2018-03-30T22:13:39.010Z,3.30
2018-03-30T22:16:08.886Z,3.30
2018-03-30T22:18:38.230Z,3.30
2018-03-30T22:21:06.864Z,3.30
2018-03-30T22:23:35.249Z,3.20
2018-03-30T22:26:03.596Z,3.20
2018-03-30T22:31:43.069Z,3.20
2018-03-30T22:43:42.486Z,3.20
2018-03-30T22:49:20.861Z,3.30
2018-03-30T22:51:49.684Z,3.30
2018-03-30T22:57:29.558Z,3.30
2018-03-30T22:59:58.738Z,3.30
2018-03-30T23:12:04.574Z,3.20
2018-03-30T23:14:32.946Z,3.20
2018-03-30T23:20:11.198Z,3.10
2018-03-30T23:22:57.085Z,3.10
2018-03-30T23:25:25.526Z,3.10
2018-03-30T23:46:55.604Z,2.80
2018-03-30T23:52:34.556Z,2.80
2018-03-30T23:55:02.913Z,2.70
